Time;durP1;ratioP1;P1;durP2;ratioP2;P2;SDS_P1;SDS_P2;PMS_P1;PMS_P2;Temp;Humidity;BMP_temperature;BMP_pressure;BME280_temperature;BME280_humidity;BME280_pressure;Samples;Min_cycle;Max_cycle;Signal;HPM_P1;HPM_P2
2022/08/10 00:00:34;;;;;;;3.00;1.40;;;;;;;25.03;43.68;100601.04;116933;1188;23005;-60
2022/08/10 00:03:01;;;;;;;2.00;1.30;;;;;;;25.02;43.80;100598.36;116996;1188;21868;-61
2022/08/10 00:05:28;;;;;;;3.80;1.60;;;;;;;25.08;43.50;100598.13;116930;1184;22918;-66
2022/08/10 00:08:09;;;;;;;2.60;1.50;;;;;;;25.02;43.50;100596.73;116966;1188;21845;-66
2022/08/10 00:10:48;;;;;;;3.50;1.50;;;;;;;24.95;43.92;100595.63;117033;1188;21859;-67
2022/08/10 00:13:15;;;;;;;3.40;1.60;;;;;;;24.88;43.85;100591.84;116956;1187;21855;-67
2022/08/10 00:15:42;;;;;;;2.50;1.60;;;;;;;24.86;44.08;100595.73;117024;1185;24214;-66
2022/08/10 00:18:24;;;;;;;3.60;1.80;;;;;;;24.82;44.12;100594.91;116981;1188;21848;-60
2022/08/10 00:21:02;;;;;;;3.50;2.10;;;;;;;24.78;44.37;100594.30;116941;1188;22902;-66
2022/08/10 00:23:29;;;;;;;2.50;1.40;;;;;;;24.74;44.27;100596.16;117103;1188;22444;-61
2022/08/10 00:25:56;;;;;;;2.40;1.90;;;;;;;24.72;44.27;100599.56;117050;1188;23455;-67
2022/08/10 00:28:23;;;;;;;4.70;1.80;;;;;;;24.70;44.53;100596.97;116996;1186;22950;-60
2022/08/10 00:30:50;;;;;;;3.20;1.60;;;;;;;24.67;44.46;100598.76;117007;1188;23559;-68
2022/08/10 00:33:17;;;;;;;2.60;1.50;;;;;;;24.64;44.56;100600.25;117022;1185;22006;-66
2022/08/10 00:35:44;;;;;;;4.40;2.00;;;;;;;24.61;44.66;100597.88;117026;1187;23636;-59
2022/08/10 00:38:11;;;;;;;4.10;1.80;;;;;;;24.58;44.62;100600.06;117042;1188;22902;-59
2022/08/10 00:40:38;;;;;;;3.60;2.00;;;;;;;24.55;44.79;100600.12;117044;1186;24028;-66
2022/08/10 00:43:05;;;;;;;2.50;1.60;;;;;;;24.53;44.88;100602.95;117086;1186;21854;-59
2022/08/10 00:45:33;;;;;;;4.50;1.70;;;;;;;24.49;44.86;100606.23;116975;1185;21924;-59
2022/08/10 00:48:00;;;;;;;3.00;1.80;;;;;;;24.46;44.89;100603.42;117036;1187;21858;-60
2022/08/10 00:50:27;;;;;;;3.20;1.80;;;;;;;24.43;44.83;100600.20;117020;1185;24309;-60
2022/08/10 00:52:54;;;;;;;2.90;1.80;;;;;;;24.42;44.95;100601.73;116960;1183;23647;-60
2022/08/10 00:55:21;;;;;;;3.00;1.50;;;;;;;24.41;44.91;100605.50;117005;1187;23558;-59
2022/08/10 00:57:48;;;;;;;3.00;1.60;;;;;;;24.41;45.00;100603.89;116770;1189;21884;-59
2022/08/10 01:00:22;;;;;;;6.40;1.70;;;;;;;24.40;44.94;100608.65;116872;1187;21848;-60
2022/08/10 01:02:49;;;;;;;4.50;1.90;;;;;;;24.40;44.86;100610.45;116945;1188;23721;-59
2022/08/10 01:05:19;;;;;;;3.10;1.60;;;;;;;24.38;45.01;100605.89;116887;1182;22966;-59
2022/08/10 01:08:06;;;;;;;5.80;1.90;;;;;;;24.36;45.06;100611.61;116775;1190;22707;-59
2022/08/10 01:10:50;;;;;;;2.60;1.60;;;;;;;24.31;45.30;100612.13;116868;1188;21862;-59
2022/08/10 01:13:24;;;;;;;3.60;1.70;;;;;;;24.26;45.21;100616.05;117013;1187;22619;-67
2022/08/10 01:16:10;;;;;;;2.30;1.60;;;;;;;24.23;45.39;100614.09;116961;1186;22991;-59
2022/08/10 01:18:42;;;;;;;2.70;1.50;;;;;;;24.19;45.54;100608.40;116977;1191;21867;-59
2022/08/10 01:21:37;;;;;;;4.10;1.90;;;;;;;24.16;45.46;100613.45;116992;1188;23580;-66
2022/08/10 01:24:26;;;;;;;2.50;1.80;;;;;;;24.14;45.42;100611.78;116979;1188;21856;-59
2022/08/10 01:27:04;;;;;;;2.10;1.70;;;;;;;24.09;45.31;100614.06;116995;1185;23579;-65
2022/08/10 01:29:34;;;;;;;4.20;2.30;;;;;;;24.06;45.70;100612.52;116872;1186;22987;-66
2022/08/10 01:32:04;;;;;;;3.20;1.90;;;;;;;24.02;45.75;100610.77;116981;1185;23557;-59
2022/08/10 01:34:38;;;;;;;2.80;2.00;;;;;;;23.99;46.10;100609.70;116872;1188;22588;-66
2022/08/10 01:37:09;;;;;;;2.80;1.90;;;;;;;23.95;46.03;100608.54;116997;1188;23479;-59
2022/08/10 01:39:42;;;;;;;3.20;2.00;;;;;;;23.91;46.32;100606.98;116852;1189;23773;-59
2022/08/10 01:42:11;;;;;;;3.60;2.30;;;;;;;23.88;46.63;100610.04;116995;1191;22173;-59
2022/08/10 01:44:44;;;;;;;2.90;2.00;;;;;;;23.84;46.73;100607.42;116985;1185;21862;-64
2022/08/10 01:50:09;;;;;;;3.10;2.40;;;;;;;23.75;46.77;100607.77;117623;1188;21861;-59
2022/08/10 01:52:36;;;;;;;3.00;2.10;;;;;;;23.76;46.42;100607.94;116926;1188;21918;-66
2022/08/10 01:55:04;;;;;;;3.40;2.10;;;;;;;23.76;46.59;100606.52;116741;1187;23269;-66
2022/08/10 01:57:31;;;;;;;9.30;2.40;;;;;;;23.74;46.45;100606.10;116953;1187;23650;-66
2022/08/10 01:59:58;;;;;;;4.20;2.40;;;;;;;23.72;46.69;100602.27;116921;1188;21870;-59
2022/08/10 02:02:29;;;;;;;5.30;2.30;;;;;;;23.70;46.67;100601.54;116972;1188;21858;-59
2022/08/10 02:04:56;;;;;;;4.10;2.00;;;;;;;23.69;46.65;100605.68;117084;1187;21896;-66
2022/08/10 02:07:24;;;;;;;4.20;2.50;;;;;;;23.69;46.91;100602.09;116802;1186;22928;-59
2022/08/10 02:09:52;;;;;;;3.50;2.10;;;;;;;23.68;46.87;100598.61;116963;1187;22812;-66
2022/08/10 02:12:21;;;;;;;3.10;2.00;;;;;;;23.64;46.91;100595.27;117027;1188;22184;-59
2022/08/10 02:14:58;;;;;;;3.00;2.20;;;;;;;23.59;47.24;100598.77;117045;1187;24179;-60
2022/08/10 02:17:29;;;;;;;4.20;2.20;;;;;;;23.56;47.40;100597.59;117036;1188;22682;-59
2022/08/10 02:20:18;;;;;;;2.80;2.00;;;;;;;23.55;47.37;100601.35;117047;1185;21997;-59
2022/08/10 02:22:48;;;;;;;4.10;2.30;;;;;;;23.54;47.40;100596.98;116866;1184;22936;-66
2022/08/10 02:25:15;;;;;;;5.70;1.90;;;;;;;23.51;47.42;100596.60;117035;1187;23563;-59
2022/08/10 02:28:03;;;;;;;5.20;2.30;;;;;;;23.49;47.46;100592.65;116906;1187;22088;-66
2022/08/10 02:30:30;;;;;;;4.30;2.60;;;;;;;23.45;47.61;100588.54;117117;1187;23803;-59
2022/08/10 02:32:57;;;;;;;4.10;2.40;;;;;;;23.43;47.54;100587.43;116987;1187;22941;-66
2022/08/10 02:35:26;;;;;;;5.40;2.60;;;;;;;23.42;47.60;100588.00;117006;1188;21912;-67
2022/08/10 02:37:59;;;;;;;4.40;1.90;;;;;;;23.44;47.60;100590.44;116998;1186;22874;-66
2022/08/10 02:40:27;;;;;;;3.00;2.00;;;;;;;23.43;47.65;100592.25;117092;1189;23471;-59
2022/08/10 02:43:22;;;;;;;3.90;2.30;;;;;;;23.42;47.53;100587.83;116953;1187;22122;-59
2022/08/10 02:46:12;;;;;;;8.90;2.70;;;;;;;23.51;47.49;100588.39;117047;1188;21848;-59
2022/08/10 02:48:58;;;;;;;6.80;2.10;;;;;;;23.52;47.72;100589.77;116991;1184;21858;-59
2022/08/10 02:51:41;;;;;;;4.20;2.00;;;;;;;23.51;47.55;100590.38;116852;1190;21858;-66
2022/08/10 02:54:31;;;;;;;3.50;1.90;;;;;;;23.51;47.60;100591.74;117062;1188;22072;-66
2022/08/10 02:57:01;;;;;;;8.60;2.00;;;;;;;23.51;47.46;100589.96;117106;1185;21857;-66
2022/08/10 02:59:31;;;;;;;4.60;2.40;;;;;;;23.56;47.38;100590.77;117064;1186;22990;-67
2022/08/10 03:02:06;;;;;;;4.20;2.20;;;;;;;23.49;47.59;100596.75;117125;1185;23560;-67
2022/08/10 03:04:47;;;;;;;7.00;1.90;;;;;;;23.48;47.45;100590.89;117034;1186;23694;-60
2022/08/10 03:07:26;;;;;;;6.60;2.70;;;;;;;23.45;47.79;100588.91;116923;1185;21858;-66
2022/08/10 03:10:33;;;;;;;3.50;1.90;;;;;;;23.43;47.81;100594.38;116970;1188;21863;-67
2022/08/10 03:13:00;;;;;;;3.40;2.00;;;;;;;23.45;47.73;100598.25;116938;1186;22848;-59
2022/08/10 03:15:28;;;;;;;2.40;1.60;;;;;;;23.45;47.56;100595.02;116935;1186;21859;-67
2022/08/10 03:17:55;;;;;;;5.70;2.10;;;;;;;23.45;47.91;100598.95;116901;1186;22915;-59
2022/08/10 03:20:30;;;;;;;4.00;1.90;;;;;;;23.46;47.85;100602.30;116912;1189;21853;-66
2022/08/10 03:23:11;;;;;;;6.10;1.70;;;;;;;23.46;47.80;100601.19;117011;1188;23047;-60
2022/08/10 03:25:38;;;;;;;2.60;1.60;;;;;;;23.48;47.94;100598.55;116996;1188;21869;-68
2022/08/10 03:28:05;;;;;;;4.10;1.80;;;;;;;23.50;47.89;100595.61;116711;1188;22823;-59
2022/08/10 03:30:32;;;;;;;5.70;1.90;;;;;;;23.55;47.84;100589.58;116966;1189;21985;-67
2022/08/10 03:33:02;;;;;;;3.50;1.70;;;;;;;23.59;47.78;100591.09;116894;1189;22907;-68
2022/08/10 03:35:29;;;;;;;4.30;2.10;;;;;;;23.58;47.66;100585.58;116991;1188;21867;-59
2022/08/10 03:37:55;;;;;;;2.80;1.70;;;;;;;23.68;47.53;100586.58;117048;1185;22463;-67
2022/08/10 03:40:28;;;;;;;2.60;1.70;;;;;;;23.74;47.33;100588.70;116893;1187;21868;-66
2022/08/10 03:43:16;;;;;;;3.00;1.90;;;;;;;23.76;47.58;100589.45;116855;1188;22034;-58
2022/08/10 03:45:44;;;;;;;5.80;2.10;;;;;;;23.84;47.52;100586.99;117143;1186;21866;-58
2022/08/10 03:48:23;;;;;;;4.30;1.80;;;;;;;23.87;47.32;100585.00;116936;1187;21885;-66
2022/08/10 03:50:58;;;;;;;3.80;1.80;;;;;;;23.90;47.29;100583.19;116956;1188;23469;-66
2022/08/10 03:53:25;;;;;;;5.60;1.80;;;;;;;23.91;47.31;100583.64;116972;1185;23663;-58
2022/08/10 03:56:12;;;;;;;3.00;1.90;;;;;;;23.93;47.15;100576.90;117038;1188;21850;-58
2022/08/10 03:58:57;;;;;;;3.10;1.80;;;;;;;23.98;47.10;100575.00;116921;1190;22917;-59
2022/08/10 04:01:24;;;;;;;3.90;2.00;;;;;;;23.99;47.15;100568.84;116759;1188;22920;-66
2022/08/10 04:04:12;;;;;;;4.60;1.70;;;;;;;24.01;47.06;100571.58;116829;1185;22619;-58
2022/08/10 04:06:45;;;;;;;4.70;1.50;;;;;;;24.05;46.92;100572.07;116868;1189;21857;-64
2022/08/10 04:09:16;;;;;;;5.20;1.90;;;;;;;24.07;46.92;100573.16;116908;1186;22928;-64
2022/08/10 04:11:43;;;;;;;2.90;1.70;;;;;;;24.12;46.88;100571.05;117037;1188;22929;-63
2022/08/10 04:14:10;;;;;;;3.10;1.80;;;;;;;24.16;46.82;100575.27;116888;1189;21993;-66
2022/08/10 04:16:57;;;;;;;2.50;1.70;;;;;;;24.18;46.89;100575.82;116864;1185;22916;-58
2022/08/10 04:19:25;;;;;;;4.40;1.60;;;;;;;24.20;46.92;100575.01;117002;1188;23584;-65
2022/08/10 04:22:03;;;;;;;2.60;1.70;;;;;;;24.19;47.10;100577.07;117207;1186;21857;-66
2022/08/10 04:24:31;;;;;;;2.50;1.50;;;;;;;24.16;47.30;100577.98;116938;1187;22154;-59
2022/08/10 04:27:00;;;;;;;3.80;1.90;;;;;;;24.17;47.31;100576.63;116891;1188;21850;-59
2022/08/10 04:29:27;;;;;;;3.60;1.90;;;;;;;24.21;47.43;100578.31;117023;1185;22648;-59
2022/08/10 04:31:54;;;;;;;4.00;1.80;;;;;;;24.26;47.33;100573.72;117129;1189;22910;-59
2022/08/10 04:34:21;;;;;;;4.30;1.80;;;;;;;24.32;47.37;100577.42;117029;1189;21859;-66
2022/08/10 04:36:48;;;;;;;4.30;1.50;;;;;;;24.38;47.16;100576.88;116820;1189;22935;-66
2022/08/10 04:39:16;;;;;;;5.20;2.20;;;;;;;24.42;47.09;100574.96;117020;1188;23557;-58
2022/08/10 04:41:43;;;;;;;3.40;1.70;;;;;;;24.46;47.02;100572.92;117008;1188;21862;-58
2022/08/10 04:44:13;;;;;;;2.10;1.70;;;;;;;24.47;47.15;100569.79;116643;1188;22176;-65
2022/08/10 04:46:40;;;;;;;4.60;1.80;;;;;;;24.48;47.01;100567.39;117063;1186;22997;-58
2022/08/10 04:49:25;;;;;;;5.90;1.80;;;;;;;24.52;47.03;100568.93;116889;1188;22109;-58
2022/08/10 04:52:12;;;;;;;3.20;1.70;;;;;;;24.54;47.07;100568.04;117072;1188;23650;-58
2022/08/10 04:54:40;;;;;;;2.10;1.60;;;;;;;24.58;46.88;100566.73;117082;1186;23054;-64
2022/08/10 04:57:07;;;;;;;4.80;1.80;;;;;;;24.61;46.87;100563.63;117121;1186;21848;-58
2022/08/10 04:59:35;;;;;;;4.60;1.50;;;;;;;24.64;46.98;100565.22;117072;1188;21846;-65
2022/08/10 05:02:02;;;;;;;3.90;1.70;;;;;;;24.69;46.98;100563.68;117145;1186;23696;-65
2022/08/10 05:04:49;;;;;;;2.70;2.10;;;;;;;24.74;46.92;100566.02;116991;1187;22189;-58
2022/08/10 05:07:16;;;;;;;2.40;1.70;;;;;;;24.80;46.85;100564.92;117084;1189;23631;-59
2022/08/10 05:09:48;;;;;;;6.90;1.90;;;;;;;24.86;46.94;100564.66;117095;1188;21959;-65
2022/08/10 05:12:34;;;;;;;6.00;1.80;;;;;;;24.94;46.74;100565.20;117066;1188;23452;-65
2022/08/10 05:15:08;;;;;;;4.80;1.70;;;;;;;25.00;46.72;100559.74;116915;1188;21976;-59
2022/08/10 05:17:35;;;;;;;3.20;1.50;;;;;;;25.04;46.64;100554.10;117217;1185;21851;-65
2022/08/10 05:20:03;;;;;;;4.00;2.00;;;;;;;25.08;46.57;100553.98;117211;1182;22973;-58
2022/08/10 05:22:41;;;;;;;2.80;1.50;;;;;;;25.12;46.49;100553.88;117161;1188;23461;-66
2022/08/10 05:25:11;;;;;;;7.80;2.20;;;;;;;25.14;46.54;100548.25;117141;1189;21862;-65
2022/08/10 05:27:39;;;;;;;4.70;2.10;;;;;;;25.18;46.45;100550.23;117241;1186;22650;-58
2022/08/10 05:30:09;;;;;;;3.00;2.00;;;;;;;25.22;46.40;100548.33;117037;1188;21852;-58
2022/08/10 05:32:36;;;;;;;6.50;2.60;;;;;;;25.27;46.55;100550.67;117122;1188;22481;-59
2022/08/10 05:35:26;;;;;;;3.30;2.00;;;;;;;25.29;46.48;100545.89;116951;1188;22933;-58
2022/08/10 05:37:55;;;;;;;4.60;2.80;;;;;;;25.30;46.45;100548.48;117006;1188;21910;-58
2022/08/10 05:40:39;;;;;;;5.40;2.90;;;;;;;25.34;46.52;100550.18;116893;1189;24255;-58
2022/08/10 05:43:16;;;;;;;6.10;2.60;;;;;;;25.39;46.48;100549.98;117087;1188;22095;-59
2022/08/10 05:45:44;;;;;;;3.60;2.20;;;;;;;25.44;46.46;100546.99;117051;1188;21864;-59
2022/08/10 05:48:32;;;;;;;4.40;2.00;;;;;;;25.51;46.45;100547.21;116919;1188;21857;-58
2022/08/10 05:51:19;;;;;;;4.00;1.90;;;;;;;25.57;46.34;100547.82;116935;1188;22928;-58
2022/08/10 05:53:46;;;;;;;9.70;2.90;;;;;;;25.64;46.38;100542.27;117037;1190;22718;-58
2022/08/10 05:56:30;;;;;;;4.90;2.40;;;;;;;25.72;46.38;100541.52;117051;1188;23497;-58
2022/08/10 05:59:18;;;;;;;4.80;2.40;;;;;;;25.80;46.36;100541.66;117029;1186;21919;-58
2022/08/10 06:02:06;;;;;;;4.50;2.20;;;;;;;25.90;46.41;100540.79;117028;1186;23650;-59
2022/08/10 06:04:53;;;;;;;4.70;2.10;;;;;;;26.00;46.35;100542.16;116887;1186;22640;-59
2022/08/10 06:07:20;;;;;;;3.40;2.30;;;;;;;26.09;46.30;100542.05;116971;1186;23627;-58
2022/08/10 06:09:47;;;;;;;50.60;7.30;;;;;;;26.18;46.24;100542.48;116923;1188;24148;-59
2022/08/10 06:12:28;;;;;;;11.30;2.70;;;;;;;26.24;46.13;100541.17;117011;1188;22082;-59
2022/08/10 06:15:00;;;;;;;4.60;2.30;;;;;;;26.30;46.03;100543.36;117005;1185;22497;-59
2022/08/10 06:17:31;;;;;;;3.90;2.30;;;;;;;26.36;45.95;100537.00;117129;1185;23535;-66
2022/08/10 06:20:00;;;;;;;4.20;2.00;;;;;;;26.40;45.79;100536.70;117149;1188;23645;-65
2022/08/10 06:22:30;;;;;;;3.60;2.20;;;;;;;26.45;45.84;100531.85;116844;1188;21864;-60
2022/08/10 06:25:00;;;;;;;3.70;2.10;;;;;;;26.51;45.82;100533.30;116644;1188;24217;-66
2022/08/10 06:27:47;;;;;;;6.90;2.60;;;;;;;26.61;45.78;100535.23;116986;1188;21919;-66
2022/08/10 06:30:14;;;;;;;4.80;2.40;;;;;;;26.71;45.67;100533.59;116891;1186;22878;-66
2022/08/10 06:32:52;;;;;;;3.40;2.20;;;;;;;26.79;45.65;100537.11;116948;1187;21979;-59
2022/08/10 06:35:24;;;;;;;7.30;2.30;;;;;;;26.89;45.58;100537.98;117058;1188;23570;-62
2022/08/10 06:37:51;;;;;;;5.40;2.50;;;;;;;27.00;45.59;100539.25;116909;1189;23913;-67
2022/08/10 06:40:19;;;;;;;4.70;1.90;;;;;;;27.13;45.39;100532.65;116734;1186;23583;-60
2022/08/10 06:42:47;;;;;;;7.40;2.80;;;;;;;27.22;45.16;100536.31;116998;1188;21860;-66
2022/08/10 06:45:29;;;;;;;3.30;2.30;;;;;;;27.30;45.17;100530.27;117043;1188;22648;-60
2022/08/10 06:48:01;;;;;;;4.30;2.50;;;;;;;27.39;44.97;100534.55;116917;1186;23583;-67
2022/08/10 06:50:30;;;;;;;4.50;2.50;;;;;;;27.49;45.04;100535.02;116795;1184;21925;-68
2022/08/10 06:53:22;;;;;;;4.90;2.30;;;;;;;27.64;44.80;100534.00;116804;1186;21911;-68
2022/08/10 06:55:56;;;;;;;5.80;2.50;;;;;;;27.80;44.80;100534.16;116891;1186;23460;-60
2022/08/10 06:58:24;;;;;;;4.20;2.30;;;;;;;27.95;44.49;100531.63;116880;1186;22828;-67
2022/08/10 07:00:53;;;;;;;7.30;2.30;;;;;;;28.08;44.57;100533.45;116910;1189;21888;-67
2022/08/10 07:03:20;;;;;;;6.30;2.60;;;;;;;28.19;44.26;100532.58;117050;1189;22940;-60
2022/08/10 07:05:48;;;;;;;5.40;3.00;;;;;;;28.27;44.07;100532.24;116976;1189;21889;-68
2022/08/10 07:08:18;;;;;;;4.40;2.40;;;;;;;28.31;44.00;100535.71;117035;1188;21970;-67
2022/08/10 07:10:46;;;;;;;5.90;2.40;;;;;;;28.34;43.86;100530.75;116877;1186;22358;-59
2022/08/10 07:13:18;;;;;;;9.30;2.70;;;;;;;28.40;43.69;100531.02;116944;1185;22953;-69
2022/08/10 07:16:09;;;;;;;12.40;6.90;;;;;;;28.48;43.53;100527.42;116899;1188;21862;-60
2022/08/10 07:18:37;;;;;;;11.40;7.10;;;;;;;28.58;43.62;100520.80;116919;1188;21863;-68
2022/08/10 07:21:04;;;;;;;8.20;4.40;;;;;;;28.69;43.36;100515.14;117006;1187;22622;-61
2022/08/10 07:23:31;;;;;;;5.30;2.80;;;;;;;28.80;43.23;100516.05;117103;1189;23576;-61
2022/08/10 07:26:18;;;;;;;5.50;2.40;;;;;;;28.91;43.35;100512.03;116918;1186;22912;-66
2022/08/10 07:28:47;;;;;;;6.60;2.60;;;;;;;29.04;43.36;100507.08;117097;1188;21846;-60
2022/08/10 07:31:20;;;;;;;4.00;2.40;;;;;;;29.17;42.93;100509.77;117036;1188;22924;-60
2022/08/10 07:34:08;;;;;;;6.90;2.70;;;;;;;29.29;42.88;100501.86;116861;1191;21846;-60
2022/08/10 07:36:35;;;;;;;6.20;2.50;;;;;;;29.41;42.48;100503.67;116914;1188;24835;-60
2022/08/10 07:39:03;;;;;;;6.00;2.70;;;;;;;29.55;42.47;100503.92;116917;1189;22949;-60
2022/08/10 07:41:31;;;;;;;3.70;2.10;;;;;;;29.74;42.53;100499.98;116910;1188;21851;-60
2022/08/10 07:44:01;;;;;;;4.80;2.20;;;;;;;30.02;42.44;100495.13;116975;1186;21898;-59
2022/08/10 07:46:29;;;;;;;6.00;2.30;;;;;;;30.33;42.23;100492.26;116851;1186;23557;-61
2022/08/10 07:49:00;;;;;;;5.10;2.00;;;;;;;30.63;41.89;100494.27;116928;1188;22338;-68
2022/08/10 07:51:27;;;;;;;5.60;2.90;;;;;;;30.91;41.47;100487.11;116941;1186;22985;-66
2022/08/10 07:53:54;;;;;;;5.40;2.40;;;;;;;31.18;41.28;100481.63;116801;1188;23307;-60
2022/08/10 07:56:23;;;;;;;5.20;2.00;;;;;;;31.41;40.99;100477.02;116813;1188;21860;-67
2022/08/10 07:59:13;;;;;;;4.70;2.20;;;;;;;31.68;40.80;100473.23;117052;1183;23555;-60
2022/08/10 08:01:49;;;;;;;;;;;;;;;31.92;40.43;100469.43;117005;1189;24197;-60
2022/08/10 08:04:17;;;;;;;5.10;2.00;;;;;;;32.10;40.08;100473.90;116891;1186;22321;-67
2022/08/10 08:06:44;;;;;;;7.60;2.40;;;;;;;32.25;39.99;100466.04;116998;1186;21869;-68
2022/08/10 08:09:11;;;;;;;4.10;2.40;;;;;;;32.33;39.49;100465.69;116880;1188;21874;-68
2022/08/10 08:11:41;;;;;;;5.80;2.40;;;;;;;32.33;39.13;100464.20;116970;1188;23654;-60
2022/08/10 08:14:09;;;;;;;5.90;2.40;;;;;;;32.36;39.21;100461.87;117013;1185;24171;-59
2022/08/10 08:16:39;;;;;;;5.70;2.30;;;;;;;32.44;39.18;100463.99;117023;1188;21908;-60
2022/08/10 08:19:06;;;;;;;4.40;2.10;;;;;;;32.52;39.23;100462.98;117001;1188;22918;-60
2022/08/10 08:21:53;;;;;;;5.30;2.00;;;;;;;32.64;38.79;100458.33;117195;1186;21891;-60
2022/08/10 08:24:40;;;;;;;5.20;2.30;;;;;;;32.74;38.55;100457.52;116922;1189;23689;-66
2022/08/10 08:27:09;;;;;;;6.80;2.10;;;;;;;32.81;38.30;100456.52;117013;1189;21887;-66
2022/08/10 08:29:40;;;;;;;2.20;1.90;;;;;;;32.83;38.29;100457.53;116870;1188;24185;-60
2022/08/10 08:32:07;;;;;;;5.30;2.00;;;;;;;32.86;38.38;100454.48;116933;1186;21857;-60
2022/08/10 08:34:40;;;;;;;6.20;2.40;;;;;;;32.97;38.15;100453.72;116756;1187;22639;-60
2022/08/10 08:37:09;;;;;;;10.90;3.10;;;;;;;33.12;37.97;100447.77;117088;1184;21867;-60
2022/08/10 08:39:37;;;;;;;14.70;9.10;;;;;;;33.27;37.44;100446.52;117065;1186;22108;-58
2022/08/10 08:42:24;;;;;;;12.00;3.40;;;;;;;33.46;37.28;100448.71;116728;1188;21926;-59
2022/08/10 08:45:14;;;;;;;5.90;3.10;;;;;;;33.65;36.92;100445.91;116956;1187;23474;-60
2022/08/10 08:47:57;;;;;;;5.90;3.50;;;;;;;33.81;36.84;100445.67;117079;1189;21910;-59
2022/08/10 08:50:59;;;;;;;7.90;2.60;;;;;;;33.95;36.79;100449.58;117076;1188;21895;-62
2022/08/10 08:53:33;;;;;;;6.40;4.70;;;;;;;34.07;36.63;100443.88;116944;1188;21903;-66
2022/08/10 08:56:35;;;;;;;6.90;4.30;;;;;;;34.16;36.08;100443.24;116854;1185;22506;-58
2022/08/10 08:59:40;;;;;;;6.80;4.10;;;;;;;34.26;35.46;100442.21;116860;1189;23003;-66
2022/08/10 09:02:53;;;;;;;18.40;4.40;;;;;;;34.32;35.35;100435.34;117127;1189;23448;-66
2022/08/10 09:05:37;;;;;;;10.80;5.30;;;;;;;34.41;34.68;100437.92;116795;1190;21894;-59
2022/08/10 09:08:58;;;;;;;5.30;2.30;;;;;;;34.50;34.78;100437.52;116829;1188;21859;-66
2022/08/10 09:11:47;;;;;;;5.30;2.30;;;;;;;34.57;34.96;100432.38;116868;1184;23623;-65
2022/08/10 09:14:21;;;;;;;5.30;1.80;;;;;;;34.64;35.08;100430.07;116969;1189;22927;-66
2022/08/10 09:17:03;;;;;;;4.80;2.30;;;;;;;34.85;35.08;100434.05;116960;1188;22739;-65
2022/08/10 09:19:36;;;;;;;5.30;2.00;;;;;;;35.08;34.99;100422.04;116837;1189;22930;-59
2022/08/10 09:22:39;;;;;;;5.50;1.70;;;;;;;35.28;34.52;100416.77;116992;1189;21885;-66
2022/08/10 09:25:20;;;;;;;5.00;2.20;;;;;;;35.54;34.04;100406.07;116873;1186;21941;-65
2022/08/10 09:28:08;;;;;;;5.90;1.90;;;;;;;35.80;34.22;100408.27;116883;1186;22647;-66
2022/08/10 09:31:02;;;;;;;3.00;2.00;;;;;;;36.13;33.77;100405.06;116857;1186;22062;-59
2022/08/10 09:33:57;;;;;;;4.70;2.10;;;;;;;36.40;33.54;100404.84;116795;1189;21899;-59
2022/08/10 09:37:00;;;;;;;3.60;2.00;;;;;;;36.41;33.45;100404.82;116817;1188;21866;-59
2022/08/10 09:39:49;;;;;;;4.80;3.10;;;;;;;36.28;33.32;100406.35;116784;1188;23561;-65
2022/08/10 09:42:40;;;;;;;2.90;2.10;;;;;;;36.10;33.30;100402.33;116832;1189;21860;-59
2022/08/10 09:45:15;;;;;;;4.00;1.90;;;;;;;36.05;32.88;100403.21;116933;1188;23557;-65
2022/08/10 09:47:57;;;;;;;2.80;2.00;;;;;;;36.05;33.21;100403.17;116787;1192;21874;-67
2022/08/10 09:50:39;;;;;;;7.60;2.00;;;;;;;36.06;33.26;100405.25;116980;1188;21881;-60
2022/08/10 09:53:45;;;;;;;4.00;1.90;;;;;;;36.11;32.68;100403.15;116724;1191;21851;-59
2022/08/10 09:56:57;;;;;;;5.70;2.00;;;;;;;36.19;32.21;100400.36;116851;1186;23640;-59
2022/08/10 09:59:47;;;;;;;4.40;2.40;;;;;;;36.35;32.36;100396.76;116864;1186;23523;-66
2022/08/10 10:03:05;;;;;;;3.60;2.30;;;;;;;36.54;32.62;100397.77;117004;1189;21873;-59
2022/08/10 10:05:51;;;;;;;5.50;2.30;;;;;;;36.72;32.14;100399.58;116809;1189;21859;-59
2022/08/10 10:08:27;;;;;;;4.10;2.40;;;;;;;36.85;31.72;100400.75;116986;1187;21873;-67
2022/08/10 10:11:15;;;;;;;9.50;2.40;;;;;;;36.94;31.58;100397.79;118092;1186;22944;-60
2022/08/10 10:13:56;;;;;;;7.90;2.00;;;;;;;37.03;31.59;100392.73;116900;1186;23037;-67
2022/08/10 10:16:49;;;;;;;3.20;1.90;;;;;;;37.14;31.03;100396.48;116778;1188;21861;-59
2022/08/10 10:19:32;;;;;;;4.80;2.80;;;;;;;37.05;30.60;100394.85;116891;1186;22616;-66
2022/08/10 10:22:44;;;;;;;4.60;2.30;;;;;;;36.76;31.07;100392.33;117008;1189;21958;-66
2022/08/10 10:25:35;;;;;;;5.60;2.10;;;;;;;36.46;31.57;100393.71;117149;1189;23030;-65
2022/08/10 10:28:59;;;;;;;5.60;3.10;;;;;;;36.25;31.05;100396.06;117027;1186;23464;-65
2022/08/10 10:32:08;;;;;;;5.40;2.00;;;;;;;35.96;31.33;100393.20;116891;1186;21895;-59
2022/08/10 10:35:01;;;;;;;4.80;2.40;;;;;;;35.69;31.58;100388.14;116835;1186;22671;-66
2022/08/10 10:37:29;;;;;;;6.70;2.50;;;;;;;35.45;31.87;100387.91;116831;1185;23571;-67
2022/08/10 10:40:16;;;;;;;3.40;2.20;;;;;;;35.42;32.31;100387.54;116846;1189;21848;-67
2022/08/10 10:43:14;;;;;;;15.00;2.70;;;;;;;35.54;31.85;100387.71;116889;1186;22826;-68
2022/08/10 10:45:42;;;;;;;4.40;2.20;;;;;;;35.64;31.21;100380.23;116789;1187;21864;-59
2022/08/10 10:48:46;;;;;;;7.00;2.00;;;;;;;35.77;31.52;100385.85;116971;1188;21894;-61
2022/08/10 10:51:26;;;;;;;7.00;1.90;;;;;;;36.01;31.56;100379.64;117066;1189;21943;-60
2022/08/10 10:54:12;;;;;;;5.20;1.80;;;;;;;36.25;31.47;100375.95;117028;1189;21861;-60
2022/08/10 10:56:56;;;;;;;7.00;2.20;;;;;;;36.52;31.00;100371.80;117057;1189;21884;-59
2022/08/10 10:59:43;;;;;;;11.40;2.60;;;;;;;36.73;29.86;100370.81;117125;1185;23569;-69
2022/08/10 11:02:40;;;;;;;5.70;2.10;;;;;;;36.90;30.68;100378.23;116984;1188;21944;-68
2022/08/10 11:05:29;;;;;;;8.60;2.10;;;;;;;37.08;29.93;100374.70;117052;1186;24246;-60
2022/08/10 11:08:15;;;;;;;5.70;1.80;;;;;;;37.01;29.18;100370.45;116960;1188;22968;-60
2022/08/10 11:11:12;;;;;;;4.10;1.90;;;;;;;36.77;29.68;100365.51;116888;1186;21868;-68
2022/08/10 11:14:15;;;;;;;5.30;2.00;;;;;;;36.50;29.03;100369.41;116950;1189;21863;-70
2022/08/10 11:17:15;;;;;;;6.20;1.90;;;;;;;36.29;29.96;100375.80;117045;1189;22088;-67
2022/08/10 11:19:50;;;;;;;6.30;2.10;;;;;;;36.13;30.00;100376.29;116870;1187;22702;-59
2022/08/10 11:22:49;;;;;;;3.30;2.10;;;;;;;36.12;30.30;100374.39;116895;1187;23321;-59
2022/08/10 11:25:26;;;;;;;8.70;2.20;;;;;;;36.30;29.76;100372.78;116814;1189;23454;-67
2022/08/10 11:28:04;;;;;;;4.30;2.00;;;;;;;36.40;29.50;100365.89;116848;1189;21863;-61
2022/08/10 11:30:52;;;;;;;4.30;1.80;;;;;;;36.45;29.60;100367.65;117038;1186;22928;-58
2022/08/10 11:33:35;;;;;;;7.50;2.50;;;;;;;36.49;29.28;100362.95;117057;1186;22927;-67
2022/08/10 11:36:35;;;;;;;12.00;3.00;;;;;;;36.62;29.14;100360.46;116980;1189;21862;-66
2022/08/10 11:39:08;;;;;;;10.90;2.20;;;;;;;36.79;28.82;100360.77;116868;1186;22817;-67
2022/08/10 11:41:54;;;;;;;2.60;1.50;;;;;;;36.91;28.24;100362.38;117069;1189;22928;-59
2022/08/10 11:44:48;;;;;;;3.00;1.80;;;;;;;37.04;28.59;100364.66;116974;1189;21856;-67
2022/08/10 11:47:32;;;;;;;4.70;1.90;;;;;;;37.04;28.53;100365.55;117032;1189;21871;-69
2022/08/10 11:50:00;;;;;;;4.70;1.60;;;;;;;36.89;28.69;100364.91;116937;1189;22636;-65
2022/08/10 11:52:58;;;;;;;2.90;1.80;;;;;;;36.84;28.80;100363.95;116943;1189;21930;-61
2022/08/10 11:55:31;;;;;;;4.20;1.60;;;;;;;36.61;28.84;100363.25;116879;1188;22718;-64
2022/08/10 11:59:54;;;;;;;2.30;1.50;;;;;;;36.34;28.99;100362.60;116861;1189;22930;-60
2022/08/10 12:00:48;;;;;;;4.50;2.00;;;;;;;36.08;29.12;100364.11;116943;1186;22929;-69
2022/08/10 12:03:15;;;;;;;5.60;2.10;;;;;;;35.90;29.08;100366.25;116918;1186;21881;-67
2022/08/10 12:05:43;;;;;;;4.10;1.90;;;;;;;35.74;29.31;100365.24;117058;1186;22928;-68